Time;durP1;ratioP1;P1;durP2;ratioP2;P2;SDS_P1;SDS_P2;PMS_P1;PMS_P2;Temp;Humidity;BMP_temperature;BMP_pressure;BME280_temperature;BME280_humidity;BME280_pressure;Samples;Min_cycle;Max_cycle;Signal;HPM_P1;HPM_P2
2022/08/14 00:00:14;;;;;;;0.00;0.00;;;;;;;18.18;78.27;101115.81;4954805;28;20070;-70
2022/08/14 00:02:40;;;;;;;0.00;0.00;;;;;;;18.36;77.38;101109.44;4958266;28;20470;-71
2022/08/14 00:05:11;;;;;;;0.00;0.00;;;;;;;18.33;77.20;101096.19;4942484;28;20170;-71
2022/08/14 00:07:37;;;;;;;0.00;0.00;;;;;;;18.33;76.17;101088.88;4958290;28;20038;-71
2022/08/14 00:10:04;;;;;;;0.00;0.00;;;;;;;18.52;76.11;101100.50;4955511;28;20647;-71
2022/08/14 00:12:34;;;;;;;0.00;0.00;;;;;;;18.66;74.65;101104.44;4956483;28;20202;-71
2022/08/14 00:15:00;;;;;;;0.00;0.00;;;;;;;18.83;74.47;101100.72;4956497;28;20538;-70
2022/08/14 00:17:26;;;;;;;0.00;0.00;;;;;;;18.86;73.52;101085.94;4956997;28;20055;-70
2022/08/14 00:19:51;;;;;;;0.00;0.00;;;;;;;19.03;73.15;101098.56;4955962;28;20022;-70
2022/08/14 00:22:17;;;;;;;0.00;0.00;;;;;;;19.08;72.18;101087.16;4955050;28;20063;-70
2022/08/14 00:24:43;;;;;;;0.00;0.00;;;;;;;19.00;72.45;101077.16;4954403;28;20027;-70
2022/08/14 00:27:09;;;;;;;0.00;0.00;;;;;;;19.25;71.34;101096.19;4959920;28;20034;-70
2022/08/14 00:29:34;;;;;;;0.00;0.00;;;;;;;19.37;70.45;101087.66;4958381;28;20074;-70
2022/08/14 00:32:00;;;;;;;0.00;0.00;;;;;;;19.42;70.29;101077.97;4956588;28;20027;-70
2022/08/14 00:34:25;;;;;;;0.00;0.00;;;;;;;19.75;68.53;101086.06;4955376;28;20470;-70
2022/08/14 00:36:50;;;;;;;0.00;0.00;;;;;;;19.82;68.47;101086.22;4958954;28;20538;-71
2022/08/14 00:39:16;;;;;;;0.00;0.00;;;;;;;19.85;68.17;101077.72;4956716;28;20019;-71
2022/08/14 00:41:41;;;;;;;0.00;0.00;;;;;;;19.77;67.78;101059.50;4955263;28;20034;-70
2022/08/14 00:44:07;;;;;;;0.00;0.00;;;;;;;20.02;67.49;101089.41;4954314;28;20149;-71
2022/08/14 00:46:32;;;;;;;0.00;0.00;;;;;;;20.05;67.46;101080.06;4956512;28;20096;-70
2022/08/14 00:48:57;;;;;;;0.00;0.00;;;;;;;20.05;66.97;101064.53;4956504;28;20074;-71
2022/08/14 00:51:23;;;;;;;0.00;0.00;;;;;;;20.10;67.18;101074.06;4954194;28;20530;-71
2022/08/14 00:53:49;;;;;;;0.00;0.00;;;;;;;20.20;66.71;101066.53;4958148;28;20026;-71
2022/08/14 00:56:14;;;;;;;0.00;0.00;;;;;;;20.19;66.19;101060.22;4956573;28;20041;-70
2022/08/14 00:58:40;;;;;;;0.00;0.00;;;;;;;20.04;65.97;101026.56;4954423;28;20491;-71
2022/08/14 01:01:08;;;;;;;0.00;0.00;;;;;;;20.33;65.64;101065.97;4956478;28;20148;-70
2022/08/14 01:03:36;;;;;;;0.00;0.00;;;;;;;20.28;65.99;101052.00;4955512;28;20031;-70
2022/08/14 01:06:03;;;;;;;0.00;0.00;;;;;;;20.21;65.31;101058.16;4958093;28;20043;-70
2022/08/14 01:08:30;;;;;;;0.00;0.00;;;;;;;20.23;66.01;101056.13;4956370;28;20031;-68
2022/08/14 01:10:57;;;;;;;0.00;0.00;;;;;;;20.22;65.73;101059.03;4955935;28;20062;-68
2022/08/14 01:13:26;;;;;;;0.00;0.00;;;;;;;20.29;65.78;101053.72;4955719;28;20019;-69
2022/08/14 01:15:59;;;;;;;0.00;0.00;;;;;;;20.33;65.23;101046.88;4955928;28;20035;-69
2022/08/14 01:21:13;;;;;;;0.00;0.00;;;;;;;20.30;65.28;101041.78;4952751;28;20130;-69
2022/08/14 01:23:42;;;;;;;0.00;0.00;;;;;;;20.23;65.54;101033.47;4954877;28;20075;-69
2022/08/14 01:26:08;;;;;;;0.00;0.00;;;;;;;20.25;65.39;101031.41;4954513;28;20026;-68
2022/08/14 01:28:36;;;;;;;0.00;0.00;;;;;;;20.23;65.32;101030.75;4955061;28;20165;-69
2022/08/14 01:31:04;;;;;;;0.00;0.00;;;;;;;20.12;65.62;101029.28;4956217;28;20023;-69
2022/08/14 01:33:30;;;;;;;0.00;0.00;;;;;;;20.20;65.52;101022.91;4953046;28;20026;-69
2022/08/14 01:35:57;;;;;;;0.00;0.00;;;;;;;20.09;65.72;101007.81;4955923;28;20302;-69
2022/08/14 01:38:23;;;;;;;0.00;0.00;;;;;;;20.06;66.14;101013.63;4955733;28;20031;-69
2022/08/14 01:40:49;;;;;;;0.00;0.00;;;;;;;20.04;66.12;101010.22;4957260;28;20026;-69
2022/08/14 01:43:16;;;;;;;0.00;0.00;;;;;;;20.03;66.43;101019.41;4953808;28;20089;-69
2022/08/14 01:45:43;;;;;;;0.00;0.00;;;;;;;20.03;66.13;101024.88;4954170;28;20099;-69
2022/08/14 01:48:08;;;;;;;0.00;0.00;;;;;;;19.92;66.90;101018.78;4959215;28;20328;-69
2022/08/14 01:50:34;;;;;;;0.00;0.00;;;;;;;19.98;66.47;101016.38;4956796;28;20030;-69
2022/08/14 01:52:59;;;;;;;0.00;0.00;;;;;;;19.89;67.01;101010.13;4957816;28;20074;-69
2022/08/14 01:55:30;;;;;;;0.00;0.00;;;;;;;19.91;66.62;101008.91;4959713;28;20062;-69
2022/08/14 01:57:56;;;;;;;0.00;0.00;;;;;;;19.92;66.99;101010.59;4960857;28;20427;-69
2022/08/14 02:00:22;;;;;;;0.00;0.00;;;;;;;19.96;66.29;101012.97;4955842;28;20027;-69
2022/08/14 02:02:48;;;;;;;0.00;0.00;;;;;;;19.78;66.79;100990.38;4957762;28;20041;-69
2022/08/14 02:05:14;;;;;;;0.00;0.00;;;;;;;19.89;66.47;101007.41;4957103;28;20423;-69
2022/08/14 02:07:41;;;;;;;0.00;0.00;;;;;;;19.75;67.20;101012.50;4957463;28;20502;-69
2022/08/14 02:10:09;;;;;;;0.00;0.00;;;;;;;19.67;67.99;101007.13;4962136;28;20449;-69
2022/08/14 02:12:34;;;;;;;0.10;0.05;;;;;;;19.63;67.96;100997.59;4961023;28;20424;-69
2022/08/14 02:15:00;;;;;;;0.03;0.00;;;;;;;19.45;68.40;100989.63;4963051;28;20447;-69
2022/08/14 02:17:26;;;;;;;0.00;0.00;;;;;;;19.46;68.72;100994.94;4964732;28;20038;-69
2022/08/14 02:19:52;;;;;;;0.00;0.00;;;;;;;19.48;68.44;101000.19;4958978;28;20082;-69
2022/08/14 02:22:18;;;;;;;0.00;0.00;;;;;;;19.39;68.82;100998.50;4956886;28;20026;-69
2022/08/14 02:24:44;;;;;;;0.00;0.00;;;;;;;19.34;69.41;101007.19;4959913;28;20019;-69
2022/08/14 02:27:10;;;;;;;0.00;0.00;;;;;;;19.14;69.43;100980.38;4958421;28;20398;-69
2022/08/14 02:29:35;;;;;;;0.00;0.00;;;;;;;19.26;69.30;101004.47;4958722;28;20482;-69
2022/08/14 02:32:01;;;;;;;0.00;0.00;;;;;;;19.17;69.81;101011.81;4956485;28;20037;-69
2022/08/14 02:34:28;;;;;;;0.00;0.00;;;;;;;19.05;70.34;101014.03;4957563;28;20114;-69
2022/08/14 02:36:58;;;;;;;0.00;0.00;;;;;;;19.00;70.95;101002.81;4958311;28;20493;-69
2022/08/14 02:39:23;;;;;;;0.00;0.00;;;;;;;18.81;71.95;100995.81;4958197;28;20262;-69
2022/08/14 02:41:50;;;;;;;0.03;0.03;;;;;;;18.81;72.03;100995.81;4956847;28;20034;-69
2022/08/14 02:44:17;;;;;;;0.00;0.00;;;;;;;18.65;71.55;100975.78;4958857;28;20023;-69
2022/08/14 02:46:43;;;;;;;0.00;0.00;;;;;;;18.60;71.94;100980.84;4959260;28;20041;-69
2022/08/14 02:49:09;;;;;;;0.00;0.00;;;;;;;18.63;72.55;101004.16;4961446;28;20331;-69
2022/08/14 02:51:36;;;;;;;0.00;0.00;;;;;;;18.38;73.47;100995.97;4956863;28;20429;-69
2022/08/14 02:54:02;;;;;;;0.00;0.00;;;;;;;18.16;74.88;101002.88;4955931;28;20030;-69
2022/08/14 02:56:28;;;;;;;0.00;0.00;;;;;;;17.97;75.46;100991.25;4956425;28;20158;-69
2022/08/14 02:58:55;;;;;;;0.00;0.00;;;;;;;17.72;75.93;100968.56;4961034;28;20410;-69
2022/08/14 03:01:22;;;;;;;0.00;0.00;;;;;;;17.75;76.25;100992.69;4957012;28;20030;-69
2022/08/14 03:03:48;;;;;;;0.00;0.00;;;;;;;17.63;76.89;100992.97;4958571;28;20034;-69
2022/08/14 03:06:15;;;;;;;0.00;0.00;;;;;;;17.48;76.85;100987.28;4958483;28;20410;-69
2022/08/14 03:08:41;;;;;;;0.00;0.00;;;;;;;17.45;77.04;100984.94;4956378;28;20159;-69
2022/08/14 03:11:09;;;;;;;0.00;0.00;;;;;;;17.36;77.82;100994.03;4956601;28;20077;-69
2022/08/14 03:13:36;;;;;;;0.00;0.00;;;;;;;17.25;78.01;100984.28;4958493;28;20277;-69
2022/08/14 03:16:06;;;;;;;0.00;0.00;;;;;;;16.98;79.24;100955.44;4959833;28;20151;-69
2022/08/14 03:18:32;;;;;;;0.00;0.00;;;;;;;17.00;79.57;100983.25;4957411;28;20037;-69
2022/08/14 03:21:03;;;;;;;0.00;0.00;;;;;;;16.92;79.49;100978.59;4957978;28;20026;-69
2022/08/14 03:23:34;;;;;;;0.00;0.00;;;;;;;16.86;79.83;100984.66;4956591;28;20031;-69
2022/08/14 03:26:01;;;;;;;0.00;0.00;;;;;;;16.60;80.00;100953.78;4956936;28;20057;-69
2022/08/14 03:28:28;;;;;;;0.00;0.00;;;;;;;16.53;80.24;100954.56;4957955;28;20037;-69
2022/08/14 03:30:54;;;;;;;0.00;0.00;;;;;;;16.55;80.65;100972.38;4958405;28;20027;-69
2022/08/14 03:33:19;;;;;;;0.00;0.00;;;;;;;16.26;80.92;100945.53;4956194;28;20039;-69
2022/08/14 03:35:45;;;;;;;0.00;0.00;;;;;;;16.22;82.01;100963.09;4957116;28;20031;-68
2022/08/14 03:38:12;;;;;;;0.00;0.00;;;;;;;16.18;82.44;100960.69;4957641;28;20057;-69
2022/08/14 03:40:40;;;;;;;0.00;0.00;;;;;;;16.11;82.93;100959.59;4953632;28;20057;-69
2022/08/14 03:43:06;;;;;;;0.00;0.00;;;;;;;16.05;83.85;100968.31;4963049;28;20033;-68
2022/08/14 03:45:34;;;;;;;0.00;0.00;;;;;;;16.03;83.19;100962.19;4959587;28;20235;-69
2022/08/14 03:48:04;;;;;;;0.00;0.00;;;;;;;15.82;83.05;100940.78;4956168;28;20402;-68
2022/08/14 03:50:31;;;;;;;0.00;0.00;;;;;;;15.87;83.40;100969.13;4957909;28;20031;-69
2022/08/14 03:52:57;;;;;;;0.00;0.00;;;;;;;15.73;83.53;100956.09;4957969;28;20189;-69
2022/08/14 03:55:22;;;;;;;0.00;0.00;;;;;;;15.78;83.39;100967.28;4953863;28;20037;-69
2022/08/14 03:57:48;;;;;;;0.00;0.00;;;;;;;15.71;83.35;100963.50;4955593;28;20310;-69
2022/08/14 04:00:13;;;;;;;0.00;0.00;;;;;;;15.62;83.88;100958.97;4956261;28;20066;-68
2022/08/14 04:02:39;;;;;;;0.00;0.00;;;;;;;15.62;84.14;100962.56;4960769;28;20026;-69
2022/08/14 04:05:06;;;;;;;0.00;0.00;;;;;;;15.32;84.91;100944.72;4954233;28;20026;-68
2022/08/14 04:07:32;;;;;;;0.00;0.00;;;;;;;15.45;84.42;100969.59;4954929;28;20046;-68
2022/08/14 04:09:57;;;;;;;0.00;0.00;;;;;;;15.43;84.13;100961.63;4961340;28;20065;-69
2022/08/14 04:12:23;;;;;;;0.00;0.00;;;;;;;15.36;84.25;100967.78;4952764;28;20415;-68
2022/08/14 04:14:48;;;;;;;0.00;0.00;;;;;;;15.32;84.26;100966.38;4962063;28;20034;-69
2022/08/14 04:17:13;;;;;;;0.00;0.00;;;;;;;15.29;84.73;100970.22;4958893;28;20038;-69
2022/08/14 04:19:39;;;;;;;0.00;0.00;;;;;;;15.14;85.35;100959.88;4961467;28;20034;-68
2022/08/14 04:22:05;;;;;;;0.00;0.00;;;;;;;15.21;85.76;100973.69;4958216;28;20019;-68
2022/08/14 04:24:34;;;;;;;0.00;0.00;;;;;;;15.19;85.52;100967.56;4954270;28;20034;-68
2022/08/14 04:26:59;;;;;;;0.00;0.00;;;;;;;15.13;85.47;100971.69;4955971;28;20030;-68
2022/08/14 04:29:24;;;;;;;0.00;0.00;;;;;;;15.11;85.85;100962.84;4954034;28;20359;-68
2022/08/14 04:31:50;;;;;;;0.00;0.00;;;;;;;15.12;85.62;100961.03;4958103;28;20117;-68
2022/08/14 04:34:15;;;;;;;0.00;0.00;;;;;;;15.08;85.87;100959.59;4957869;28;20058;-68
2022/08/14 04:44:52;;;;;;;0.00;0.00;;;;;;;15.26;87.25;100957.00;4954988;28;20284;-68
2022/08/14 04:50:05;;;;;;;0.00;0.00;;;;;;;15.23;87.67;100950.00;4955809;28;20382;-69
2022/08/14 04:52:30;;;;;;;0.00;0.00;;;;;;;15.22;87.60;100940.22;4956036;28;20703;-69
2022/08/14 04:54:56;;;;;;;0.00;0.00;;;;;;;15.26;88.14;100938.06;4953938;28;20069;-69
2022/08/14 04:57:22;;;;;;;0.00;0.00;;;;;;;15.24;88.05;100934.66;4957077;28;20381;-69
2022/08/14 04:59:47;;;;;;;0.00;0.00;;;;;;;15.32;88.39;100929.38;4958219;28;20057;-68
2022/08/14 05:02:13;;;;;;;0.00;0.00;;;;;;;15.30;88.33;100929.50;4954491;28;20099;-68
2022/08/14 05:04:38;;;;;;;0.00;0.00;;;;;;;15.32;89.38;100926.66;4953643;28;20045;-68
2022/08/14 05:07:03;;;;;;;0.00;0.00;;;;;;;15.45;88.80;100937.97;4956456;28;20042;-68
2022/08/14 05:09:29;;;;;;;0.10;0.10;;;;;;;15.54;88.85;100932.69;4957019;28;20423;-68
2022/08/14 05:11:54;;;;;;;0.00;0.00;;;;;;;15.66;88.75;100933.31;4957843;28;20069;-69
2022/08/14 05:14:21;;;;;;;0.00;0.00;;;;;;;15.81;88.84;100922.84;4950162;28;20051;-68
2022/08/14 05:16:46;;;;;;;0.00;0.00;;;;;;;15.93;88.41;100929.75;4957111;28;20089;-69
2022/08/14 05:19:13;;;;;;;0.00;0.00;;;;;;;16.11;87.61;100931.66;4957931;28;20482;-68
2022/08/14 05:21:39;;;;;;;0.05;0.00;;;;;;;16.22;87.33;100920.59;4959414;28;20023;-68
2022/08/14 05:24:05;;;;;;;0.00;0.00;;;;;;;16.32;87.40;100918.66;4959790;28;20379;-68
2022/08/14 05:26:30;;;;;;;0.00;0.00;;;;;;;16.55;86.56;100920.88;4959754;28;20105;-68
2022/08/14 05:28:56;;;;;;;0.00;0.00;;;;;;;16.68;86.18;100917.75;4963769;28;20038;-68
2022/08/14 05:31:21;;;;;;;0.10;0.00;;;;;;;16.92;85.43;100914.38;4960733;28;20031;-68
2022/08/14 05:33:48;;;;;;;0.00;0.00;;;;;;;17.21;84.90;100917.78;4961707;28;20034;-68
2022/08/14 05:36:14;;;;;;;0.00;0.00;;;;;;;17.25;84.03;100900.19;4957979;28;20113;-68
2022/08/14 05:38:44;;;;;;;0.00;0.00;;;;;;;17.60;83.35;100908.28;4962258;28;20027;-68
2022/08/14 05:41:13;;;;;;;0.00;0.00;;;;;;;17.85;82.65;100911.94;4957021;28;20097;-68
2022/08/14 05:43:40;;;;;;;0.00;0.00;;;;;;;17.99;81.97;100915.91;4956288;28;20035;-68
2022/08/14 05:46:07;;;;;;;0.00;0.00;;;;;;;18.19;81.22;100916.44;4958730;28;20030;-68
2022/08/14 05:48:32;;;;;;;0.00;0.00;;;;;;;18.43;80.47;100921.06;4959257;28;20039;-68
2022/08/14 05:50:58;;;;;;;0.00;0.00;;;;;;;18.62;79.91;100913.56;4957052;28;20038;-68
2022/08/14 05:53:25;;;;;;;0.00;0.00;;;;;;;18.84;78.80;100911.16;4958227;28;20046;-68
2022/08/14 05:55:51;;;;;;;0.00;0.00;;;;;;;19.02;78.57;100924.59;4960465;28;20126;-68
2022/08/14 05:58:17;;;;;;;0.00;0.00;;;;;;;19.08;78.36;100912.16;4959426;28;20392;-68
2022/08/14 06:00:45;;;;;;;0.00;0.00;;;;;;;19.32;77.23;100919.41;4962402;28;20045;-68
2022/08/14 06:03:15;;;;;;;0.00;0.00;;;;;;;19.55;76.58;100911.34;4957488;28;20098;-68
2022/08/14 06:05:46;;;;;;;0.00;0.00;;;;;;;19.69;75.49;100898.84;4956407;28;20027;-68
2022/08/14 06:08:20;;;;;;;0.00;0.00;;;;;;;19.98;74.59;100905.53;4958385;28;20031;-68
2022/08/14 06:10:46;;;;;;;0.00;0.00;;;;;;;20.14;73.94;100907.25;4957165;28;20030;-68
2022/08/14 06:13:12;;;;;;;0.00;0.00;;;;;;;20.29;73.63;100910.03;4958526;28;20050;-68
2022/08/14 06:15:38;;;;;;;0.00;0.00;;;;;;;20.43;73.27;100913.03;4960444;28;20031;-68
2022/08/14 06:18:03;;;;;;;0.00;0.00;;;;;;;20.63;72.24;100910.66;4960788;28;20054;-68
2022/08/14 06:20:29;;;;;;;0.00;0.00;;;;;;;20.72;71.95;100914.13;4957951;28;20033;-68
2022/08/14 06:22:54;;;;;;;0.00;0.00;;;;;;;20.64;71.82;100893.25;4959821;28;20031;-68
2022/08/14 06:25:20;;;;;;;0.00;0.00;;;;;;;20.89;71.00;100914.88;4957955;28;20030;-68
2022/08/14 06:27:46;;;;;;;0.00;0.00;;;;;;;21.03;71.69;100913.19;4959518;28;20031;-68
2022/08/14 06:30:20;;;;;;;0.10;0.00;;;;;;;21.13;70.67;100908.28;4957453;28;20093;-68
2022/08/14 06:32:46;;;;;;;;;;;;;;;21.19;70.42;100912.16;4957387;28;20109;-68
2022/08/14 06:35:13;;;;;;;0.00;0.00;;;;;;;21.32;70.95;100906.88;4958634;28;20352;-69
2022/08/14 06:37:58;;;;;;;0.00;0.00;;;;;;;21.42;70.14;100910.16;4958110;28;20085;-68
2022/08/14 06:40:27;;;;;;;0.00;0.00;;;;;;;21.50;71.20;100911.94;4959489;28;20560;-68
2022/08/14 06:42:52;;;;;;;0.00;0.00;;;;;;;21.46;70.07;100904.31;4957807;28;20034;-68
2022/08/14 06:45:18;;;;;;;0.00;0.00;;;;;;;21.69;69.20;100901.47;4959827;28;20070;-67
2022/08/14 06:47:45;;;;;;;0.00;0.00;;;;;;;21.54;68.78;100875.03;4957579;28;20031;-68
2022/08/14 06:50:14;;;;;;;0.00;0.00;;;;;;;21.91;69.78;100909.72;4956655;28;20034;-67
2022/08/14 06:52:40;;;;;;;0.00;0.00;;;;;;;21.92;68.74;100900.47;4954952;28;20035;-66
2022/08/14 06:55:06;;;;;;;0.00;0.00;;;;;;;21.98;68.95;100905.19;4959204;28;20355;-68
2022/08/14 06:57:37;;;;;;;0.00;0.00;;;;;;;22.10;67.73;100900.91;4957769;28;20027;-66
2022/08/14 07:00:08;;;;;;;0.00;0.00;;;;;;;22.18;67.97;100903.50;4954720;28;20099;-66
2022/08/14 07:08:01;;;;;;;0.00;0.00;;;;;;;22.56;68.75;100887.88;4958954;28;20015;-69
2022/08/14 07:10:26;;;;;;;0.00;0.00;;;;;;;22.70;68.22;100886.09;4958410;28;20414;-69
2022/08/14 07:12:52;;;;;;;0.00;0.00;;;;;;;22.99;66.65;100889.66;4957709;28;20627;-71
2022/08/14 07:15:18;;;;;;;0.00;0.00;;;;;;;23.13;65.78;100888.69;4956736;28;20034;-71
2022/08/14 07:17:47;;;;;;;0.00;0.00;;;;;;;23.25;65.88;100890.91;4961864;28;20030;-71
2022/08/14 07:20:13;;;;;;;0.38;0.00;;;;;;;23.38;65.78;100888.22;4956296;28;20026;-68
2022/08/14 07:22:39;;;;;;;0.00;0.00;;;;;;;23.38;65.07;100895.59;4955406;28;20376;-69
2022/08/14 07:25:04;;;;;;;0.00;0.00;;;;;;;23.45;64.04;100897.31;4956045;28;20070;-70
2022/08/14 07:27:30;;;;;;;0.00;0.00;;;;;;;23.45;64.83;100900.06;4956034;28;20354;-68
2022/08/14 07:29:55;;;;;;;0.00;0.00;;;;;;;23.46;64.23;100887.19;4956820;28;20082;-68
2022/08/14 07:32:21;;;;;;;0.00;0.00;;;;;;;23.52;64.77;100857.09;4956639;28;20035;-69
2022/08/14 07:34:47;;;;;;;0.00;0.00;;;;;;;23.71;64.81;100856.50;4955013;28;20085;-73
2022/08/14 07:37:12;;;;;;;0.00;0.00;;;;;;;23.99;63.56;100882.94;4954666;28;20027;-67
2022/08/14 07:39:37;;;;;;;0.00;0.00;;;;;;;24.06;62.92;100881.94;4955057;28;20521;-69
2022/08/14 07:42:03;;;;;;;0.00;0.00;;;;;;;24.22;62.46;100882.56;4956519;28;20828;-71
2022/08/14 07:44:28;;;;;;;0.00;0.00;;;;;;;24.29;60.70;100877.09;4958089;28;20570;-69
2022/08/14 07:46:53;;;;;;;0.00;0.00;;;;;;;24.14;61.09;100885.50;4964119;28;20278;-69
2022/08/14 07:49:20;;;;;;;0.00;0.00;;;;;;;24.16;62.40;100886.16;4957980;28;20034;-69
2022/08/14 07:51:45;;;;;;;0.00;0.00;;;;;;;24.23;64.07;100884.28;4958180;28;20037;-70
2022/08/14 07:54:11;;;;;;;0.00;0.00;;;;;;;24.34;61.74;100880.91;4941483;28;20023;-69
2022/08/14 07:56:36;;;;;;;0.00;0.00;;;;;;;24.47;62.46;100877.34;4958367;28;20118;-70
2022/08/14 07:59:02;;;;;;;0.00;0.00;;;;;;;24.56;61.71;100875.22;4956823;28;20627;-71
2022/08/14 08:01:30;;;;;;;0.00;0.00;;;;;;;24.80;61.40;100870.16;4956043;28;20070;-70
2022/08/14 08:03:58;;;;;;;0.00;0.00;;;;;;;24.76;60.41;100871.63;4940461;28;20037;-70
2022/08/14 08:06:24;;;;;;;0.00;0.00;;;;;;;25.00;61.21;100875.63;4954013;28;20029;-70
2022/08/14 08:08:52;;;;;;;0.08;0.08;;;;;;;25.06;61.73;100850.00;4955653;28;20446;-70
2022/08/14 08:11:18;;;;;;;0.00;0.00;;;;;;;25.28;59.88;100869.81;4941002;28;20490;-70
2022/08/14 08:13:44;;;;;;;0.00;0.00;;;;;;;25.41;59.49;100866.16;4954698;28;20022;-70
2022/08/14 08:16:09;;;;;;;0.00;0.00;;;;;;;25.47;58.17;100871.88;4956834;28;20064;-70
2022/08/14 08:18:35;;;;;;;0.00;0.00;;;;;;;25.51;58.88;100867.66;4957213;28;20026;-69
2022/08/14 08:21:00;;;;;;;0.00;0.00;;;;;;;25.62;58.68;100861.44;4955758;28;20631;-70
2022/08/14 08:23:28;;;;;;;0.00;0.00;;;;;;;25.75;58.06;100864.13;4957850;28;20063;-70
2022/08/14 08:25:53;;;;;;;0.00;0.00;;;;;;;25.85;58.69;100863.66;4954511;28;20688;-70
2022/08/14 08:28:22;;;;;;;0.00;0.00;;;;;;;25.98;56.66;100859.97;4955322;28;20482;-70
2022/08/14 08:30:59;;;;;;;0.00;0.00;;;;;;;26.05;57.79;100866.28;4953007;28;20033;-70
2022/08/14 08:33:27;;;;;;;0.75;0.00;;;;;;;25.96;57.29;100855.75;4958371;28;20054;-70
2022/08/14 08:35:57;;;;;;;0.00;0.00;;;;;;;26.04;56.23;100848.09;4962039;28;20073;-70
2022/08/14 08:38:25;;;;;;;0.00;0.00;;;;;;;26.35;56.90;100860.13;4960014;28;20471;-70
2022/08/14 08:40:53;;;;;;;0.00;0.00;;;;;;;26.50;55.54;100858.97;4952016;28;20070;-71
2022/08/14 08:43:23;;;;;;;0.00;0.00;;;;;;;26.52;54.42;100867.84;4963404;28;20101;-69
2022/08/14 08:46:00;;;;;;;0.00;0.00;;;;;;;26.56;56.05;100868.22;4958587;28;20022;-70
2022/08/14 08:48:29;;;;;;;0.00;0.00;;;;;;;26.59;55.02;100854.88;4959727;28;20031;-70
2022/08/14 08:50:59;;;;;;;0.00;0.00;;;;;;;26.71;53.56;100870.63;4959071;28;20069;-70
2022/08/14 08:53:32;;;;;;;0.00;0.00;;;;;;;26.84;54.99;100859.53;4960505;28;20267;-70
2022/08/14 08:55:58;;;;;;;0.00;0.00;;;;;;;27.01;54.22;100859.78;4957928;28;20038;-70
2022/08/14 08:58:24;;;;;;;0.00;0.00;;;;;;;27.14;54.49;100852.41;4958245;28;20308;-70
2022/08/14 09:00:52;;;;;;;0.00;0.00;;;;;;;27.27;53.97;100845.91;4955963;28;20097;-70
2022/08/14 09:03:20;;;;;;;0.00;0.00;;;;;;;27.28;52.04;100853.09;4953253;28;20500;-70
2022/08/14 09:05:56;;;;;;;0.00;0.00;;;;;;;27.50;52.90;100848.81;4959199;28;20042;-70
2022/08/14 09:08:27;;;;;;;0.00;0.00;;;;;;;27.73;51.77;100840.88;4955489;28;20027;-70
2022/08/14 09:10:53;;;;;;;0.00;0.00;;;;;;;27.93;50.47;100840.59;4955692;28;20106;-70
2022/08/14 09:13:21;;;;;;;0.00;0.00;;;;;;;27.94;52.30;100831.22;4953188;28;20023;-70
2022/08/14 09:15:48;;;;;;;0.00;0.00;;;;;;;27.96;50.33;100835.44;4958148;28;20027;-70
2022/08/14 09:18:15;;;;;;;0.00;0.00;;;;;;;28.01;50.73;100840.22;4959248;28;20113;-69
2022/08/14 09:20:43;;;;;;;0.00;0.00;;;;;;;28.16;50.64;100837.06;4959361;28;20034;-70
2022/08/14 09:23:09;;;;;;;0.00;0.00;;;;;;;28.19;49.71;100833.81;4950948;28;20467;-69
2022/08/14 09:25:36;;;;;;;0.00;0.00;;;;;;;28.40;49.42;100831.56;4957989;28;20045;-70
2022/08/14 09:28:02;;;;;;;0.00;0.00;;;;;;;28.64;48.66;100824.13;4962737;28;20035;-71
2022/08/14 09:30:30;;;;;;;0.00;0.00;;;;;;;28.59;49.05;100808.28;4963668;28;20101;-69
2022/08/14 09:33:01;;;;;;;0.00;0.00;;;;;;;28.66;47.85;100823.88;4957561;28;20027;-70
2022/08/14 09:35:54;;;;;;;0.00;0.00;;;;;;;28.76;45.38;100815.00;4955451;28;20030;-70
2022/08/14 09:38:44;;;;;;;0.00;0.00;;;;;;;28.87;46.78;100817.75;4957061;28;20049;-70
2022/08/14 09:41:22;;;;;;;0.00;0.00;;;;;;;28.94;45.76;100794.69;4952036;28;20050;-70
2022/08/14 09:43:51;;;;;;;0.00;0.00;;;;;;;29.03;44.95;100802.34;4955879;28;20062;-69
2022/08/14 09:46:17;;;;;;;0.00;0.00;;;;;;;29.11;46.59;100806.66;4950729;28;20114;-69
2022/08/14 09:48:42;;;;;;;0.00;0.00;;;;;;;28.98;44.91;100802.25;4954707;28;20117;-69
2022/08/14 09:51:22;;;;;;;0.00;0.00;;;;;;;29.07;45.29;100776.97;4956907;28;20034;-70
2022/08/14 09:54:06;;;;;;;0.00;0.00;;;;;;;29.19;45.65;100795.19;4954900;28;20483;-69
2022/08/14 09:56:49;;;;;;;0.00;0.00;;;;;;;29.38;44.50;100794.22;4953674;28;20049;-70
2022/08/14 09:59:16;;;;;;;0.00;0.00;;;;;;;29.56;44.85;100784.88;4957584;28;20446;-69
2022/08/14 10:01:42;;;;;;;0.00;0.00;;;;;;;29.66;44.65;100793.38;4953624;28;20542;-70
2022/08/14 10:04:23;;;;;;;0.00;0.00;;;;;;;29.73;46.04;100785.72;4955844;28;20034;-69
2022/08/14 10:06:50;;;;;;;0.00;0.00;;;;;;;29.90;43.04;100776.63;4961842;28;20026;-69
2022/08/14 10:09:16;;;;;;;0.00;0.00;;;;;;;29.79;43.00;100764.56;4960197;28;20466;-70
2022/08/14 10:11:56;;;;;;;0.00;0.00;;;;;;;30.25;41.51;100775.53;4958928;28;20084;-70
2022/08/14 10:14:23;;;;;;;0.00;0.00;;;;;;;30.56;42.05;100766.88;4955173;28;20105;-69
2022/08/14 10:16:54;;;;;;;0.00;0.00;;;;;;;30.59;43.13;100771.94;4958364;28;20023;-68
2022/08/14 10:19:24;;;;;;;0.00;0.00;;;;;;;30.85;42.27;100769.50;4961737;28;20081;-69
2022/08/14 10:22:02;;;;;;;0.00;0.00;;;;;;;31.16;42.38;100762.41;4960740;28;20034;-70
2022/08/14 10:24:36;;;;;;;0.00;0.00;;;;;;;31.41;40.74;100758.25;4959822;28;20035;-70
2022/08/14 10:27:02;;;;;;;0.00;0.00;;;;;;;31.59;40.61;100757.03;4958140;28;20031;-70
2022/08/14 10:29:36;;;;;;;0.00;0.00;;;;;;;31.61;38.22;100759.53;4963776;28;20051;-70
2022/08/14 10:32:03;;;;;;;0.00;0.00;;;;;;;31.62;37.94;100756.50;4961622;28;20041;-69
2022/08/14 10:34:38;;;;;;;0.00;0.00;;;;;;;31.75;37.70;100749.72;4964623;28;20027;-71
2022/08/14 10:37:09;;;;;;;0.00;0.00;;;;;;;31.76;37.75;100747.75;4962106;28;20035;-69
2022/08/14 10:39:36;;;;;;;0.00;0.00;;;;;;;31.63;37.76;100758.19;4960694;28;20101;-69
2022/08/14 10:42:12;;;;;;;0.00;0.00;;;;;;;31.35;38.53;100749.03;4965306;28;20022;-70
2022/08/14 10:44:46;;;;;;;0.00;0.00;;;;;;;31.91;37.51;100739.59;4958686;28;20077;-67
2022/08/14 10:47:12;;;;;;;0.00;0.00;;;;;;;31.97;37.32;100718.25;4964871;28;20817;-70
2022/08/14 10:49:48;;;;;;;0.00;0.00;;;;;;;32.26;36.68;100737.31;4964506;28;20073;-68
2022/08/14 10:52:29;;;;;;;0.00;0.00;;;;;;;31.96;38.59;100736.00;4956515;28;20041;-67
2022/08/14 10:55:14;;;;;;;0.00;0.00;;;;;;;32.20;34.23;100724.50;4960542;28;20106;-68
2022/08/14 10:57:54;;;;;;;0.00;0.00;;;;;;;32.70;35.65;100722.31;4957626;28;21029;-69
2022/08/14 11:00:25;;;;;;;0.00;0.00;;;;;;;32.69;37.93;100721.44;4958499;28;20037;-67
2022/08/14 11:03:03;;;;;;;0.00;0.00;;;;;;;32.72;38.04;100704.25;4958833;28;20031;-70
2022/08/14 11:05:47;;;;;;;0.00;0.00;;;;;;;32.99;34.79;100694.91;4963847;28;20063;-69
2022/08/14 11:08:14;;;;;;;0.00;0.00;;;;;;;33.10;34.94;100706.88;4958510;28;20031;-68
2022/08/14 11:10:54;;;;;;;0.00;0.00;;;;;;;32.89;34.76;100709.63;4958497;28;20034;-68
2022/08/14 11:13:28;;;;;;;0.00;0.00;;;;;;;32.90;33.04;100711.28;4959047;28;20105;-69
2022/08/14 11:15:56;;;;;;;0.00;0.00;;;;;;;32.19;34.55;100708.94;4960869;28;20061;-66
2022/08/14 11:18:22;;;;;;;0.00;0.00;;;;;;;32.42;35.91;100702.16;4956591;28;20070;-67
2022/08/14 11:20:49;;;;;;;0.00;0.00;;;;;;;32.20;35.54;100705.06;4956511;28;20166;-68
2022/08/14 11:23:17;;;;;;;0.00;0.00;;;;;;;32.69;35.83;100704.78;4944536;28;20493;-68
2022/08/14 11:25:44;;;;;;;0.00;0.00;;;;;;;32.51;36.92;100706.09;4957941;28;20475;-70
2022/08/14 11:28:11;;;;;;;0.00;0.00;;;;;;;32.76;36.51;100707.28;4957196;28;20042;-69
2022/08/14 11:30:39;;;;;;;0.00;0.00;;;;;;;33.34;34.98;100698.88;4960270;28;20098;-69
2022/08/14 11:33:06;;;;;;;0.00;0.00;;;;;;;33.47;34.46;100678.03;4954268;28;20050;-70
2022/08/14 11:35:31;;;;;;;0.00;0.00;;;;;;;33.81;33.56;100704.47;4959400;28;20074;-66
2022/08/14 11:38:00;;;;;;;0.00;0.00;;;;;;;33.35;35.11;100705.25;4955913;28;20031;-68
2022/08/14 11:40:29;;;;;;;0.00;0.00;;;;;;;32.86;35.34;100703.75;4955130;28;20085;-67
2022/08/14 11:42:55;;;;;;;0.00;0.00;;;;;;;33.14;33.85;100702.44;4952348;28;20357;-67
2022/08/14 11:45:22;;;;;;;0.00;0.00;;;;;;;33.08;34.56;100703.53;4955397;28;20046;-69